This is the latest recevied weather packets stored in our database for station/object KQ4JKJ. If no packets are shown the sender has not sent any weather packets the latest 10 day(s).
| Time | Temp. | Humidity | Pressure | Rain* | Wind** | Luminosity | Snow |
|---|---|---|---|---|---|---|---|
| 1778183018 | 31.67° C | 68% | 1007.4 hPa | 0 mm | - | 578 W/m² | - |
| 1778182714 | 31.67° C | 68% | 1007.6 hPa | 0 mm | - | 590 W/m² | - |
| 1778182406 | 31.67° C | 70% | 1007.7 hPa | 0 mm | - | 603 W/m² | - |
| 1778182102 | 31.11° C | 69% | 1007.7 hPa | 0 mm | - | 614 W/m² | - |
| 1778181799 | 32.22° C | 66% | 1007.7 hPa | 0 mm | - | 634 W/m² | - |
| 1778181495 | 32.22° C | 67% | 1007.7 hPa | 0 mm | - | 633 W/m² | - |
| 1778181191 | 31.67° C | 67% | 1007.7 hPa | 0 mm | - | 643 W/m² | - |
| 1778180889 | 31.67° C | 68% | 1007.8 hPa | 0 mm | - | 657 W/m² | - |
| 1778180587 | 32.22° C | 67% | 1007.8 hPa | 0 mm | - | 688 W/m² | - |
| 1778180286 | 32.22° C | 66% | 1008 hPa | 0 mm | - | 688 W/m² | - |
| 1778179981 | 31.67° C | 66% | 1008.7 hPa | 0 mm | - | 700 W/m² | - |
| 1778179679 | 32.22° C | 68% | 1008.4 hPa | 0 mm | - | 738 W/m² | - |
| 1778179377 | 33.33° C | 62% | 1008.4 hPa | 0 mm | - | 720 W/m² | - |
| 1778179073 | 33.89° C | 62% | 1008.5 hPa | 0 mm | - | 716 W/m² | - |
| 1778178770 | 34.44° C | 61% | 1008.5 hPa | 0 mm | - | 715 W/m² | - |
| 1778178467 | 35.56° C | 53% | 1008.6 hPa | 0 mm | - | 717 W/m² | - |
| 1778178163 | 35.56° C | 48% | 1008.5 hPa | 0 mm | - | 734 W/m² | - |
| 1778177860 | 35.56° C | 48% | 1008.9 hPa | 0 mm | - | 745 W/m² | - |
| 1778177556 | 36.11° C | 48% | 1009.1 hPa | 0 mm | - | 749 W/m² | - |
| 1778177253 | 36.11° C | 48% | 1009.1 hPa | 0 mm | - | 758 W/m² | - |
| 1778176950 | 36.67° C | 48% | 1009.1 hPa | 0 mm | - | 768 W/m² | - |
| 1778176645 | 36.11° C | 50% | 1009.2 hPa | 0 mm | - | 774 W/m² | - |
| 1778176342 | 36.11° C | 50% | 1009.2 hPa | 0 mm | - | 357 W/m² | - |
| 1778176040 | 35° C | 53% | 1009.2 hPa | 0 mm | - | 780 W/m² | - |
| 1778175738 | 35° C | 51% | 1009.3 hPa | 0 mm | - | 785 W/m² | - |
* Rain latest hour (hover to see other rain measurements)
** Current wind speed in m/s (hover to see current wind gust speed)